Bridge of Earn, United Kingdom
Current Conditions -  °F | °C
As of 2:20 PM on Sunday 21 Dec 2014 (Local Time) from EGPN Reporting Station
Scattered Clouds Scattered Clouds  
Wind Chill: 50°   Ceiling: Unl
Heat Index: 50°   Visibility: 6mi
Dew Point: 46°   Wind: 31mph
Humidity: 87%   Direction: 260°W
Pressure: 29.65"   Gusts: NA
Location:  56.35°N, 3.41°W
Report Text: EGPN 211420Z 26027KT 9999 FEW010 SCT017 10/08 Q1004
Loading
Personal Weather Stations






























Interactive Weather Map New forecast layout! Learn more

10-Day Weather Forecast

Advertisements
Track Severe Weather on mobile